sensor_id;sensor_type;location;lat;lon;timestamp;P1;durP1;ratioP1;P2;durP2;ratioP2
5195;SDS011;2617;51.006;12.436;2023-07-28T00:04:36;3.17;;;1.37;;
5195;SDS011;2617;51.006;12.436;2023-07-28T00:09:39;2.30;;;1.13;;
5195;SDS011;2617;51.006;12.436;2023-07-28T00:14:42;8.13;;;1.53;;
5195;SDS011;2617;51.006;12.436;2023-07-28T00:19:44;3.27;;;1.10;;
5195;SDS011;2617;51.006;12.436;2023-07-28T00:24:47;5.40;;;2.37;;
5195;SDS011;2617;51.006;12.436;2023-07-28T00:29:49;2.10;;;1.40;;
5195;SDS011;2617;51.006;12.436;2023-07-28T00:34:52;2.03;;;1.35;;
5195;SDS011;2617;51.006;12.436;2023-07-28T00:39:55;5.20;;;1.70;;
5195;SDS011;2617;51.006;12.436;2023-07-28T00:44:57;2.80;;;1.50;;
5195;SDS011;2617;51.006;12.436;2023-07-28T00:50:00;4.50;;;2.07;;
5195;SDS011;2617;51.006;12.436;2023-07-28T00:55:02;5.62;;;1.98;;
5195;SDS011;2617;51.006;12.436;2023-07-28T01:00:05;5.20;;;1.90;;
5195;SDS011;2617;51.006;12.436;2023-07-28T01:05:09;2.93;;;1.47;;
5195;SDS011;2617;51.006;12.436;2023-07-28T01:10:14;3.33;;;1.80;;
5195;SDS011;2617;51.006;12.436;2023-07-28T01:15:17;4.96;;;2.00;;
5195;SDS011;2617;51.006;12.436;2023-07-28T01:20:20;2.80;;;2.47;;
5195;SDS011;2617;51.006;12.436;2023-07-28T01:25:32;5.75;;;1.73;;
5195;SDS011;2617;51.006;12.436;2023-07-28T01:30:50;2.83;;;1.80;;
5195;SDS011;2617;51.006;12.436;2023-07-28T01:35:52;10.77;;;1.80;;
5195;SDS011;2617;51.006;12.436;2023-07-28T01:40:56;3.40;;;1.42;;
5195;SDS011;2617;51.006;12.436;2023-07-28T01:45:58;2.65;;;1.65;;
5195;SDS011;2617;51.006;12.436;2023-07-28T01:51:00;1.60;;;1.00;;
5195;SDS011;2617;51.006;12.436;2023-07-28T01:56:03;2.28;;;1.85;;
5195;SDS011;2617;51.006;12.436;2023-07-28T02:01:05;1.70;;;1.48;;
5195;SDS011;2617;51.006;12.436;2023-07-28T02:06:08;1.93;;;1.40;;
5195;SDS011;2617;51.006;12.436;2023-07-28T02:11:10;1.50;;;1.40;;
5195;SDS011;2617;51.006;12.436;2023-07-28T02:16:13;2.53;;;1.40;;
5195;SDS011;2617;51.006;12.436;2023-07-28T02:21:15;3.50;;;1.23;;
5195;SDS011;2617;51.006;12.436;2023-07-28T02:26:18;5.62;;;1.37;;
5195;SDS011;2617;51.006;12.436;2023-07-28T02:31:21;1.83;;;1.17;;
5195;SDS011;2617;51.006;12.436;2023-07-28T02:36:23;3.05;;;1.17;;
5195;SDS011;2617;51.006;12.436;2023-07-28T02:41:26;5.47;;;1.50;;
5195;SDS011;2617;51.006;12.436;2023-07-28T02:46:29;2.17;;;1.27;;
5195;SDS011;2617;51.006;12.436;2023-07-28T02:51:31;1.80;;;1.10;;
5195;SDS011;2617;51.006;12.436;2023-07-28T02:56:34;4.10;;;1.33;;
5195;SDS011;2617;51.006;12.436;2023-07-28T03:01:36;4.65;;;1.20;;
5195;SDS011;2617;51.006;12.436;2023-07-28T03:06:39;4.33;;;0.97;;
5195;SDS011;2617;51.006;12.436;2023-07-28T03:11:42;1.47;;;1.10;;
5195;SDS011;2617;51.006;12.436;2023-07-28T03:16:45;2.40;;;1.10;;
5195;SDS011;2617;51.006;12.436;2023-07-28T03:21:49;1.48;;;1.20;;
5195;SDS011;2617;51.006;12.436;2023-07-28T03:26:51;2.80;;;1.20;;
5195;SDS011;2617;51.006;12.436;2023-07-28T03:31:55;3.45;;;1.20;;
5195;SDS011;2617;51.006;12.436;2023-07-28T03:36:57;3.40;;;1.20;;
5195;SDS011;2617;51.006;12.436;2023-07-28T03:41:59;1.67;;;1.27;;
5195;SDS011;2617;51.006;12.436;2023-07-28T03:47:03;2.10;;;1.77;;
5195;SDS011;2617;51.006;12.436;2023-07-28T03:52:05;2.83;;;1.65;;
5195;SDS011;2617;51.006;12.436;2023-07-28T03:57:08;1.40;;;1.20;;
5195;SDS011;2617;51.006;12.436;2023-07-28T04:02:10;2.60;;;1.03;;
5195;SDS011;2617;51.006;12.436;2023-07-28T04:07:13;2.43;;;1.67;;
5195;SDS011;2617;51.006;12.436;2023-07-28T04:12:15;2.23;;;1.40;;
5195;SDS011;2617;51.006;12.436;2023-07-28T04:17:17;8.03;;;1.40;;
5195;SDS011;2617;51.006;12.436;2023-07-28T04:22:21;8.05;;;1.10;;
5195;SDS011;2617;51.006;12.436;2023-07-28T04:27:23;5.27;;;1.30;;
5195;SDS011;2617;51.006;12.436;2023-07-28T04:32:25;1.70;;;1.30;;
5195;SDS011;2617;51.006;12.436;2023-07-28T04:37:28;1.85;;;1.27;;
5195;SDS011;2617;51.006;12.436;2023-07-28T04:42:31;3.55;;;1.12;;
5195;SDS011;2617;51.006;12.436;2023-07-28T04:47:34;1.63;;;1.53;;
5195;SDS011;2617;51.006;12.436;2023-07-28T04:52:36;2.10;;;1.20;;
5195;SDS011;2617;51.006;12.436;2023-07-28T04:57:38;1.83;;;0.97;;
5195;SDS011;2617;51.006;12.436;2023-07-28T05:02:41;4.17;;;1.10;;
5195;SDS011;2617;51.006;12.436;2023-07-28T05:07:43;2.20;;;1.17;;
5195;SDS011;2617;51.006;12.436;2023-07-28T05:12:46;0.90;;;0.90;;
5195;SDS011;2617;51.006;12.436;2023-07-28T05:17:48;1.07;;;1.03;;
5195;SDS011;2617;51.006;12.436;2023-07-28T05:22:51;1.00;;;1.00;;
5195;SDS011;2617;51.006;12.436;2023-07-28T05:27:54;2.40;;;1.30;;
5195;SDS011;2617;51.006;12.436;2023-07-28T05:32:56;3.37;;;1.20;;
5195;SDS011;2617;51.006;12.436;2023-07-28T05:37:59;1.10;;;1.00;;
5195;SDS011;2617;51.006;12.436;2023-07-28T05:43:01;3.40;;;1.20;;
5195;SDS011;2617;51.006;12.436;2023-07-28T05:48:04;3.05;;;1.20;;
5195;SDS011;2617;51.006;12.436;2023-07-28T05:53:06;2.40;;;0.90;;
5195;SDS011;2617;51.006;12.436;2023-07-28T05:58:09;1.07;;;0.80;;
5195;SDS011;2617;51.006;12.436;2023-07-28T06:03:12;5.73;;;1.10;;
5195;SDS011;2617;51.006;12.436;2023-07-28T06:08:14;2.60;;;1.13;;
5195;SDS011;2617;51.006;12.436;2023-07-28T06:13:17;1.30;;;1.10;;
5195;SDS011;2617;51.006;12.436;2023-07-28T06:18:19;1.03;;;1.03;;
5195;SDS011;2617;51.006;12.436;2023-07-28T06:23:22;1.77;;;1.07;;
5195;SDS011;2617;51.006;12.436;2023-07-28T06:28:25;1.20;;;1.10;;
5195;SDS011;2617;51.006;12.436;2023-07-28T06:33:28;2.20;;;1.20;;
5195;SDS011;2617;51.006;12.436;2023-07-28T06:38:30;1.00;;;1.00;;
5195;SDS011;2617;51.006;12.436;2023-07-28T06:43:34;3.33;;;1.10;;
5195;SDS011;2617;51.006;12.436;2023-07-28T06:48:36;1.40;;;1.30;;
5195;SDS011;2617;51.006;12.436;2023-07-28T06:53:38;4.93;;;1.00;;
5195;SDS011;2617;51.006;12.436;2023-07-28T06:58:41;1.37;;;1.10;;
5195;SDS011;2617;51.006;12.436;2023-07-28T07:03:44;0.77;;;0.77;;
5195;SDS011;2617;51.006;12.436;2023-07-28T07:08:46;0.90;;;0.90;;
5195;SDS011;2617;51.006;12.436;2023-07-28T07:13:49;0.67;;;0.67;;
5195;SDS011;2617;51.006;12.436;2023-07-28T07:18:53;1.08;;;1.08;;
5195;SDS011;2617;51.006;12.436;2023-07-28T07:23:55;2.63;;;0.63;;
5195;SDS011;2617;51.006;12.436;2023-07-28T07:28:58;0.63;;;0.60;;
5195;SDS011;2617;51.006;12.436;2023-07-28T07:34:00;0.70;;;0.70;;
5195;SDS011;2617;51.006;12.436;2023-07-28T07:39:03;0.70;;;0.60;;
5195;SDS011;2617;51.006;12.436;2023-07-28T07:44:06;0.73;;;0.60;;
5195;SDS011;2617;51.006;12.436;2023-07-28T07:49:08;6.55;;;0.90;;
5195;SDS011;2617;51.006;12.436;2023-07-28T07:54:11;0.60;;;0.60;;
5195;SDS011;2617;51.006;12.436;2023-07-28T07:59:13;0.60;;;0.60;;
5195;SDS011;2617;51.006;12.436;2023-07-28T08:04:16;0.80;;;0.67;;
5195;SDS011;2617;51.006;12.436;2023-07-28T08:09:18;1.67;;;0.80;;
5195;SDS011;2617;51.006;12.436;2023-07-28T08:14:21;1.17;;;0.70;;
5195;SDS011;2617;51.006;12.436;2023-07-28T08:19:23;0.60;;;0.60;;
5195;SDS011;2617;51.006;12.436;2023-07-28T08:24:26;0.70;;;0.60;;
5195;SDS011;2617;51.006;12.436;2023-07-28T08:29:30;4.10;;;0.80;;
5195;SDS011;2617;51.006;12.436;2023-07-28T08:34:32;2.78;;;0.73;;
5195;SDS011;2617;51.006;12.436;2023-07-28T08:39:34;0.73;;;0.50;;
5195;SDS011;2617;51.006;12.436;2023-07-28T08:44:37;0.97;;;0.60;;
5195;SDS011;2617;51.006;12.436;2023-07-28T08:49:39;0.77;;;0.60;;
5195;SDS011;2617;51.006;12.436;2023-07-28T08:54:42;1.17;;;0.60;;
5195;SDS011;2617;51.006;12.436;2023-07-28T08:59:45;1.07;;;0.50;;
5195;SDS011;2617;51.006;12.436;2023-07-28T09:04:48;0.60;;;0.53;;
5195;SDS011;2617;51.006;12.436;2023-07-28T09:09:51;0.50;;;0.50;;
5195;SDS011;2617;51.006;12.436;2023-07-28T09:14:56;3.05;;;0.70;;
5195;SDS011;2617;51.006;12.436;2023-07-28T09:19:58;0.50;;;0.50;;
5195;SDS011;2617;51.006;12.436;2023-07-28T09:25:01;0.80;;;0.80;;
5195;SDS011;2617;51.006;12.436;2023-07-28T09:30:03;0.70;;;0.40;;
5195;SDS011;2617;51.006;12.436;2023-07-28T09:35:11;0.50;;;0.50;;
5195;SDS011;2617;51.006;12.436;2023-07-28T09:40:14;0.90;;;0.70;;
5195;SDS011;2617;51.006;12.436;2023-07-28T09:45:18;0.50;;;0.50;;
5195;SDS011;2617;51.006;12.436;2023-07-28T09:50:20;0.63;;;0.60;;
5195;SDS011;2617;51.006;12.436;2023-07-28T09:55:23;0.90;;;0.50;;
5195;SDS011;2617;51.006;12.436;2023-07-28T10:00:25;0.60;;;0.60;;
5195;SDS011;2617;51.006;12.436;2023-07-28T10:05:28;0.70;;;0.70;;
5195;SDS011;2617;51.006;12.436;2023-07-28T10:10:30;0.57;;;0.57;;
5195;SDS011;2617;51.006;12.436;2023-07-28T10:15:33;0.70;;;0.70;;
5195;SDS011;2617;51.006;12.436;2023-07-28T10:20:36;0.60;;;0.60;;
5195;SDS011;2617;51.006;12.436;2023-07-28T10:25:38;0.90;;;0.53;;
5195;SDS011;2617;51.006;12.436;2023-07-28T10:30:50;0.70;;;0.70;;
5195;SDS011;2617;51.006;12.436;2023-07-28T10:35:46;0.60;;;0.60;;
5195;SDS011;2617;51.006;12.436;2023-07-28T10:40:46;1.20;;;0.60;;
5195;SDS011;2617;51.006;12.436;2023-07-28T10:45:49;0.60;;;0.60;;
5195;SDS011;2617;51.006;12.436;2023-07-28T10:50:51;0.60;;;0.60;;
5195;SDS011;2617;51.006;12.436;2023-07-28T10:55:55;0.93;;;0.70;;
5195;SDS011;2617;51.006;12.436;2023-07-28T11:00:57;0.80;;;0.70;;
5195;SDS011;2617;51.006;12.436;2023-07-28T11:06:00;0.80;;;0.80;;
5195;SDS011;2617;51.006;12.436;2023-07-28T11:11:03;0.80;;;0.80;;
5195;SDS011;2617;51.006;12.436;2023-07-28T11:16:05;0.80;;;0.80;;
5195;SDS011;2617;51.006;12.436;2023-07-28T11:21:08;0.77;;;0.77;;
5195;SDS011;2617;51.006;12.436;2023-07-28T11:26:11;0.77;;;0.77;;
5195;SDS011;2617;51.006;12.436;2023-07-28T11:31:14;1.00;;;0.70;;
5195;SDS011;2617;51.006;12.436;2023-07-28T11:36:23;0.80;;;0.80;;
5195;SDS011;2617;51.006;12.436;2023-07-28T11:41:28;1.60;;;0.87;;
5195;SDS011;2617;51.006;12.436;2023-07-28T11:46:32;0.73;;;0.70;;
5195;SDS011;2617;51.006;12.436;2023-07-28T11:51:40;0.60;;;0.57;;
5195;SDS011;2617;51.006;12.436;2023-07-28T11:56:43;0.60;;;0.60;;
5195;SDS011;2617;51.006;12.436;2023-07-28T12:01:52;2.67;;;2.40;;
5195;SDS011;2617;51.006;12.436;2023-07-28T12:07:00;0.87;;;0.70;;
5195;SDS011;2617;51.006;12.436;2023-07-28T12:12:08;0.60;;;0.60;;
5195;SDS011;2617;51.006;12.436;2023-07-28T12:17:13;0.60;;;0.60;;
5195;SDS011;2617;51.006;12.436;2023-07-28T12:22:16;0.50;;;0.50;;
5195;SDS011;2617;51.006;12.436;2023-07-28T12:27:19;0.87;;;0.60;;
5195;SDS011;2617;51.006;12.436;2023-07-28T12:32:22;0.50;;;0.50;;
5195;SDS011;2617;51.006;12.436;2023-07-28T12:37:24;0.60;;;0.60;;
5195;SDS011;2617;51.006;12.436;2023-07-28T12:42:27;0.60;;;0.60;;
5195;SDS011;2617;51.006;12.436;2023-07-28T12:47:30;0.87;;;0.50;;
5195;SDS011;2617;51.006;12.436;2023-07-28T12:52:32;0.70;;;0.50;;
5195;SDS011;2617;51.006;12.436;2023-07-28T12:57:34;0.50;;;0.40;;
5195;SDS011;2617;51.006;12.436;2023-07-28T13:02:37;0.60;;;0.60;;
5195;SDS011;2617;51.006;12.436;2023-07-28T13:07:40;1.10;;;0.60;;
5195;SDS011;2617;51.006;12.436;2023-07-28T13:12:43;0.50;;;0.43;;
5195;SDS011;2617;51.006;12.436;2023-07-28T13:17:45;0.50;;;0.50;;
5195;SDS011;2617;51.006;12.436;2023-07-28T13:22:47;4.10;;;0.60;;
5195;SDS011;2617;51.006;12.436;2023-07-28T13:27:50;0.60;;;0.50;;
5195;SDS011;2617;51.006;12.436;2023-07-28T13:32:52;1.73;;;0.47;;
5195;SDS011;2617;51.006;12.436;2023-07-28T13:37:55;0.70;;;0.60;;
5195;SDS011;2617;51.006;12.436;2023-07-28T13:42:57;0.50;;;0.40;;
5195;SDS011;2617;51.006;12.436;2023-07-28T13:48:00;0.50;;;0.50;;
5195;SDS011;2617;51.006;12.436;2023-07-28T13:53:02;1.95;;;0.60;;
5195;SDS011;2617;51.006;12.436;2023-07-28T13:58:04;0.75;;;0.75;;
5195;SDS011;2617;51.006;12.436;2023-07-28T14:03:07;1.23;;;0.70;;
5195;SDS011;2617;51.006;12.436;2023-07-28T14:08:10;0.52;;;0.45;;
5195;SDS011;2617;51.006;12.436;2023-07-28T14:13:13;0.57;;;0.57;;
5195;SDS011;2617;51.006;12.436;2023-07-28T14:18:15;0.70;;;0.70;;
5195;SDS011;2617;51.006;12.436;2023-07-28T14:23:21;3.97;;;1.00;;
5195;SDS011;2617;51.006;12.436;2023-07-28T14:28:26;2.30;;;0.90;;
5195;SDS011;2617;51.006;12.436;2023-07-28T14:33:28;2.40;;;0.80;;
5195;SDS011;2617;51.006;12.436;2023-07-28T14:38:30;3.40;;;0.90;;
5195;SDS011;2617;51.006;12.436;2023-07-28T14:43:34;0.80;;;0.80;;
5195;SDS011;2617;51.006;12.436;2023-07-28T14:48:36;0.60;;;0.60;;
5195;SDS011;2617;51.006;12.436;2023-07-28T14:53:38;0.77;;;0.77;;
5195;SDS011;2617;51.006;12.436;2023-07-28T14:58:42;0.97;;;0.80;;
5195;SDS011;2617;51.006;12.436;2023-07-28T15:03:44;0.80;;;0.70;;
5195;SDS011;2617;51.006;12.436;2023-07-28T15:08:47;2.10;;;0.70;;
5195;SDS011;2617;51.006;12.436;2023-07-28T15:13:49;0.60;;;0.60;;
5195;SDS011;2617;51.006;12.436;2023-07-28T15:18:51;0.63;;;0.63;;
5195;SDS011;2617;51.006;12.436;2023-07-28T15:23:54;0.77;;;0.77;;
5195;SDS011;2617;51.006;12.436;2023-07-28T15:28:56;0.80;;;0.60;;
5195;SDS011;2617;51.006;12.436;2023-07-28T15:33:59;0.97;;;0.77;;
5195;SDS011;2617;51.006;12.436;2023-07-28T15:39:01;3.53;;;0.70;;
5195;SDS011;2617;51.006;12.436;2023-07-28T15:44:04;0.80;;;0.80;;
5195;SDS011;2617;51.006;12.436;2023-07-28T15:49:06;0.60;;;0.60;;
5195;SDS011;2617;51.006;12.436;2023-07-28T15:54:09;0.60;;;0.60;;
5195;SDS011;2617;51.006;12.436;2023-07-28T15:59:11;0.70;;;0.70;;
5195;SDS011;2617;51.006;12.436;2023-07-28T16:04:14;0.60;;;0.60;;
5195;SDS011;2617;51.006;12.436;2023-07-28T16:09:17;0.70;;;0.70;;
5195;SDS011;2617;51.006;12.436;2023-07-28T16:14:19;0.97;;;0.90;;
5195;SDS011;2617;51.006;12.436;2023-07-28T16:19:22;0.50;;;0.50;;
5195;SDS011;2617;51.006;12.436;2023-07-28T16:24:24;0.60;;;0.60;;
5195;SDS011;2617;51.006;12.436;2023-07-28T16:29:27;0.67;;;0.67;;
5195;SDS011;2617;51.006;12.436;2023-07-28T16:34:30;0.93;;;0.60;;
5195;SDS011;2617;51.006;12.436;2023-07-28T16:39:33;0.70;;;0.63;;
5195;SDS011;2617;51.006;12.436;2023-07-28T16:44:35;1.60;;;0.70;;
5195;SDS011;2617;51.006;12.436;2023-07-28T16:49:38;0.53;;;0.53;;
5195;SDS011;2617;51.006;12.436;2023-07-28T16:54:40;0.60;;;0.60;;
5195;SDS011;2617;51.006;12.436;2023-07-28T16:59:43;0.60;;;0.60;;
5195;SDS011;2617;51.006;12.436;2023-07-28T17:04:45;0.73;;;0.63;;
5195;SDS011;2617;51.006;12.436;2023-07-28T17:09:48;0.50;;;0.50;;
5195;SDS011;2617;51.006;12.436;2023-07-28T17:14:50;1.70;;;1.60;;
5195;SDS011;2617;51.006;12.436;2023-07-28T17:19:52;3.23;;;2.60;;
5195;SDS011;2617;51.006;12.436;2023-07-28T17:24:55;2.23;;;0.90;;
5195;SDS011;2617;51.006;12.436;2023-07-28T17:29:58;2.73;;;0.70;;
5195;SDS011;2617;51.006;12.436;2023-07-28T17:35:01;1.20;;;0.70;;
5195;SDS011;2617;51.006;12.436;2023-07-28T17:40:04;0.70;;;0.60;;
5195;SDS011;2617;51.006;12.436;2023-07-28T17:45:08;2.25;;;1.52;;
5195;SDS011;2617;51.006;12.436;2023-07-28T17:50:11;1.83;;;1.73;;
5195;SDS011;2617;51.006;12.436;2023-07-28T17:55:13;0.90;;;0.90;;
5195;SDS011;2617;51.006;12.436;2023-07-28T18:00:16;2.30;;;2.10;;
5195;SDS011;2617;51.006;12.436;2023-07-28T18:05:18;0.63;;;0.63;;
5195;SDS011;2617;51.006;12.436;2023-07-28T18:10:20;2.70;;;0.73;;
5195;SDS011;2617;51.006;12.436;2023-07-28T18:15:23;0.80;;;0.80;;
5195;SDS011;2617;51.006;12.436;2023-07-28T18:20:26;0.50;;;0.50;;
5195;SDS011;2617;51.006;12.436;2023-07-28T18:25:28;0.80;;;0.80;;
5195;SDS011;2617;51.006;12.436;2023-07-28T18:30:31;0.90;;;0.70;;
5195;SDS011;2617;51.006;12.436;2023-07-28T18:35:34;0.60;;;0.60;;
5195;SDS011;2617;51.006;12.436;2023-07-28T18:40:36;1.10;;;0.80;;
5195;SDS011;2617;51.006;12.436;2023-07-28T18:45:39;2.30;;;0.70;;
5195;SDS011;2617;51.006;12.436;2023-07-28T18:50:41;0.62;;;0.62;;
5195;SDS011;2617;51.006;12.436;2023-07-28T18:55:44;1.37;;;1.00;;
5195;SDS011;2617;51.006;12.436;2023-07-28T19:00:46;0.60;;;0.60;;
5195;SDS011;2617;51.006;12.436;2023-07-28T19:05:48;0.90;;;0.90;;
5195;SDS011;2617;51.006;12.436;2023-07-28T19:10:51;1.20;;;1.10;;
5195;SDS011;2617;51.006;12.436;2023-07-28T19:15:53;1.07;;;0.97;;
5195;SDS011;2617;51.006;12.436;2023-07-28T19:20:56;0.70;;;0.70;;
5195;SDS011;2617;51.006;12.436;2023-07-28T19:25:58;1.50;;;1.40;;
5195;SDS011;2617;51.006;12.436;2023-07-28T19:31:03;3.66;;;1.60;;
5195;SDS011;2617;51.006;12.436;2023-07-28T19:36:05;1.70;;;1.30;;
5195;SDS011;2617;51.006;12.436;2023-07-28T19:41:07;1.03;;;1.00;;
5195;SDS011;2617;51.006;12.436;2023-07-28T19:46:09;0.83;;;0.80;;
5195;SDS011;2617;51.006;12.436;2023-07-28T19:51:12;1.08;;;0.93;;
5195;SDS011;2617;51.006;12.436;2023-07-28T19:56:15;1.27;;;1.17;;
5195;SDS011;2617;51.006;12.436;2023-07-28T20:01:17;2.13;;;1.10;;
5195;SDS011;2617;51.006;12.436;2023-07-28T20:06:20;0.90;;;0.90;;
5195;SDS011;2617;51.006;12.436;2023-07-28T20:11:22;2.80;;;1.40;;
5195;SDS011;2617;51.006;12.436;2023-07-28T20:16:25;0.90;;;0.90;;
5195;SDS011;2617;51.006;12.436;2023-07-28T20:21:27;6.33;;;1.00;;
5195;SDS011;2617;51.006;12.436;2023-07-28T20:26:29;1.73;;;0.83;;
5195;SDS011;2617;51.006;12.436;2023-07-28T20:31:33;2.15;;;1.05;;
5195;SDS011;2617;51.006;12.436;2023-07-28T20:36:35;1.20;;;1.10;;
5195;SDS011;2617;51.006;12.436;2023-07-28T20:41:37;1.60;;;1.10;;
5195;SDS011;2617;51.006;12.436;2023-07-28T20:46:41;2.20;;;1.43;;
5195;SDS011;2617;51.006;12.436;2023-07-28T20:51:43;2.13;;;1.00;;
5195;SDS011;2617;51.006;12.436;2023-07-28T20:56:46;1.40;;;1.30;;
5195;SDS011;2617;51.006;12.436;2023-07-28T21:01:48;1.58;;;1.48;;
5195;SDS011;2617;51.006;12.436;2023-07-28T21:06:50;3.22;;;1.55;;
5195;SDS011;2617;51.006;12.436;2023-07-28T21:11:53;1.70;;;1.57;;
5195;SDS011;2617;51.006;12.436;2023-07-28T21:16:55;1.30;;;1.27;;
5195;SDS011;2617;51.006;12.436;2023-07-28T21:21:58;2.50;;;1.47;;
5195;SDS011;2617;51.006;12.436;2023-07-28T21:27:01;1.70;;;1.60;;
5195;SDS011;2617;51.006;12.436;2023-07-28T21:32:03;2.47;;;1.93;;
5195;SDS011;2617;51.006;12.436;2023-07-28T21:37:06;1.70;;;1.60;;
5195;SDS011;2617;51.006;12.436;2023-07-28T21:42:09;2.35;;;1.42;;
5195;SDS011;2617;51.006;12.436;2023-07-28T21:47:12;1.90;;;1.80;;
5195;SDS011;2617;51.006;12.436;2023-07-28T21:52:14;2.60;;;1.90;;
5195;SDS011;2617;51.006;12.436;2023-07-28T21:57:17;1.60;;;1.50;;
5195;SDS011;2617;51.006;12.436;2023-07-28T22:02:19;2.17;;;1.98;;
5195;SDS011;2617;51.006;12.436;2023-07-28T22:07:22;1.98;;;1.85;;
5195;SDS011;2617;51.006;12.436;2023-07-28T22:12:24;1.80;;;1.70;;
5195;SDS011;2617;51.006;12.436;2023-07-28T22:17:27;1.53;;;1.43;;
5195;SDS011;2617;51.006;12.436;2023-07-28T22:22:30;1.87;;;1.67;;
5195;SDS011;2617;51.006;12.436;2023-07-28T22:27:32;11.63;;;1.70;;
5195;SDS011;2617;51.006;12.436;2023-07-28T22:32:35;2.00;;;1.90;;
5195;SDS011;2617;51.006;12.436;2023-07-28T22:37:39;2.10;;;2.00;;
5195;SDS011;2617;51.006;12.436;2023-07-28T22:42:41;1.60;;;1.50;;
5195;SDS011;2617;51.006;12.436;2023-07-28T22:47:44;2.03;;;1.87;;
5195;SDS011;2617;51.006;12.436;2023-07-28T22:52:47;1.93;;;1.77;;
5195;SDS011;2617;51.006;12.436;2023-07-28T22:57:49;2.37;;;2.17;;
5195;SDS011;2617;51.006;12.436;2023-07-28T23:02:52;2.20;;;2.00;;
5195;SDS011;2617;51.006;12.436;2023-07-28T23:07:54;1.80;;;1.70;;
5195;SDS011;2617;51.006;12.436;2023-07-28T23:12:57;5.00;;;1.97;;
5195;SDS011;2617;51.006;12.436;2023-07-28T23:17:59;1.70;;;1.60;;
5195;SDS011;2617;51.006;12.436;2023-07-28T23:23:02;2.40;;;1.80;;
5195;SDS011;2617;51.006;12.436;2023-07-28T23:28:05;2.13;;;1.77;;
5195;SDS011;2617;51.006;12.436;2023-07-28T23:33:10;2.00;;;1.90;;
5195;SDS011;2617;51.006;12.436;2023-07-28T23:38:13;2.30;;;2.10;;
5195;SDS011;2617;51.006;12.436;2023-07-28T23:43:15;1.60;;;1.50;;
5195;SDS011;2617;51.006;12.436;2023-07-28T23:48:18;1.80;;;1.70;;
5195;SDS011;2617;51.006;12.436;2023-07-28T23:53:20;2.10;;;2.00;;
5195;SDS011;2617;51.006;12.436;2023-07-28T23:58:23;2.20;;;2.10;;
